sensor_id;sensor_type;location;lat;lon;timestamp;P1;durP1;ratioP1;P2;durP2;ratioP2
68214;SDS011;55036;52.138;5.236;2022-08-24T00:02:06;7.70;;;5.47;;
68214;SDS011;55036;52.138;5.236;2022-08-24T00:04:37;6.03;;;5.10;;
68214;SDS011;55036;52.138;5.236;2022-08-24T00:07:05;6.75;;;5.85;;
68214;SDS011;55036;52.138;5.236;2022-08-24T00:09:47;6.75;;;5.32;;
68214;SDS011;55036;52.138;5.236;2022-08-24T00:12:16;5.80;;;5.13;;
68214;SDS011;55036;52.138;5.236;2022-08-24T00:14:43;7.40;;;5.40;;
68214;SDS011;55036;52.138;5.236;2022-08-24T00:17:09;8.07;;;5.20;;
68214;SDS011;55036;52.138;5.236;2022-08-24T00:19:37;7.25;;;5.82;;
68214;SDS011;55036;52.138;5.236;2022-08-24T00:22:04;7.35;;;5.07;;
68214;SDS011;55036;52.138;5.236;2022-08-24T00:24:31;7.03;;;5.78;;
68214;SDS011;55036;52.138;5.236;2022-08-24T00:26:59;8.00;;;5.30;;
68214;SDS011;55036;52.138;5.236;2022-08-24T00:29:25;6.78;;;4.75;;
68214;SDS011;55036;52.138;5.236;2022-08-24T00:31:52;5.90;;;5.30;;
68214;SDS011;55036;52.138;5.236;2022-08-24T00:34:19;5.65;;;4.72;;
68214;SDS011;55036;52.138;5.236;2022-08-24T00:36:46;5.72;;;5.07;;
68214;SDS011;55036;52.138;5.236;2022-08-24T00:39:13;6.13;;;4.68;;
68214;SDS011;55036;52.138;5.236;2022-08-24T00:41:41;8.77;;;4.75;;
68214;SDS011;55036;52.138;5.236;2022-08-24T00:44:09;5.80;;;4.57;;
68214;SDS011;55036;52.138;5.236;2022-08-24T00:46:44;5.38;;;4.57;;
68214;SDS011;55036;52.138;5.236;2022-08-24T00:49:32;7.07;;;4.78;;
68214;SDS011;55036;52.138;5.236;2022-08-24T00:58:14;6.50;;;4.90;;
68214;SDS011;55036;52.138;5.236;2022-08-24T01:00:48;8.75;;;5.30;;
68214;SDS011;55036;52.138;5.236;2022-08-24T01:03:19;5.60;;;5.10;;
68214;SDS011;55036;52.138;5.236;2022-08-24T01:05:47;5.38;;;4.88;;
68214;SDS011;55036;52.138;5.236;2022-08-24T01:08:14;6.35;;;4.93;;
68214;SDS011;55036;52.138;5.236;2022-08-24T01:10:42;7.97;;;5.15;;
68214;SDS011;55036;52.138;5.236;2022-08-24T01:13:12;6.47;;;5.00;;
68214;SDS011;55036;52.138;5.236;2022-08-24T01:15:41;5.82;;;4.68;;
68214;SDS011;55036;52.138;5.236;2022-08-24T01:18:14;6.28;;;4.63;;
68214;SDS011;55036;52.138;5.236;2022-08-24T01:23:49;6.28;;;4.47;;
68214;SDS011;55036;52.138;5.236;2022-08-24T01:26:24;5.82;;;4.88;;
68214;SDS011;55036;52.138;5.236;2022-08-24T01:29:02;5.35;;;4.80;;
68214;SDS011;55036;52.138;5.236;2022-08-24T01:31:32;7.72;;;5.68;;
68214;SDS011;55036;52.138;5.236;2022-08-24T01:33:59;7.82;;;5.38;;
68214;SDS011;55036;52.138;5.236;2022-08-24T01:36:30;5.80;;;5.18;;
68214;SDS011;55036;52.138;5.236;2022-08-24T01:39:03;7.50;;;5.60;;
68214;SDS011;55036;52.138;5.236;2022-08-24T01:41:35;5.78;;;5.20;;
68214;SDS011;55036;52.138;5.236;2022-08-24T01:44:02;7.43;;;5.07;;
68214;SDS011;55036;52.138;5.236;2022-08-24T01:46:29;8.20;;;5.40;;
68214;SDS011;55036;52.138;5.236;2022-08-24T01:48:56;6.47;;;5.30;;
68214;SDS011;55036;52.138;5.236;2022-08-24T01:51:24;7.85;;;5.50;;
68214;SDS011;55036;52.138;5.236;2022-08-24T01:53:54;6.30;;;4.53;;
68214;SDS011;55036;52.138;5.236;2022-08-24T01:56:21;5.55;;;5.05;;
68214;SDS011;55036;52.138;5.236;2022-08-24T01:58:48;6.60;;;5.05;;
68214;SDS011;55036;52.138;5.236;2022-08-24T02:01:15;8.43;;;5.45;;
68214;SDS011;55036;52.138;5.236;2022-08-24T02:03:43;9.25;;;5.28;;
68214;SDS011;55036;52.138;5.236;2022-08-24T02:06:13;7.65;;;5.47;;
68214;SDS011;55036;52.138;5.236;2022-08-24T02:08:40;7.22;;;5.47;;
68214;SDS011;55036;52.138;5.236;2022-08-24T02:11:07;5.90;;;5.30;;
68214;SDS011;55036;52.138;5.236;2022-08-24T02:13:35;7.47;;;4.63;;
68214;SDS011;55036;52.138;5.236;2022-08-24T02:16:03;6.18;;;4.88;;
68214;SDS011;55036;52.138;5.236;2022-08-24T02:18:31;5.47;;;4.88;;
68214;SDS011;55036;52.138;5.236;2022-08-24T02:20:59;5.65;;;5.15;;
68214;SDS011;55036;52.138;5.236;2022-08-24T02:23:26;7.90;;;5.18;;
68214;SDS011;55036;52.138;5.236;2022-08-24T02:25:54;6.32;;;5.20;;
68214;SDS011;55036;52.138;5.236;2022-08-24T02:28:21;6.65;;;4.70;;
68214;SDS011;55036;52.138;5.236;2022-08-24T02:30:48;6.65;;;4.75;;
68214;SDS011;55036;52.138;5.236;2022-08-24T02:33:14;6.95;;;5.05;;
68214;SDS011;55036;52.138;5.236;2022-08-24T02:35:42;5.88;;;4.72;;
68214;SDS011;55036;52.138;5.236;2022-08-24T02:38:08;8.43;;;5.57;;
68214;SDS011;55036;52.138;5.236;2022-08-24T02:40:35;6.75;;;5.00;;
68214;SDS011;55036;52.138;5.236;2022-08-24T02:43:02;6.03;;;4.90;;
68214;SDS011;55036;52.138;5.236;2022-08-24T02:45:31;5.28;;;4.63;;
68214;SDS011;55036;52.138;5.236;2022-08-24T02:50:29;9.68;;;4.68;;
68214;SDS011;55036;52.138;5.236;2022-08-24T02:52:56;5.90;;;5.13;;
68214;SDS011;55036;52.138;5.236;2022-08-24T02:55:23;5.65;;;4.95;;
68214;SDS011;55036;52.138;5.236;2022-08-24T02:57:49;6.35;;;5.72;;
68214;SDS011;55036;52.138;5.236;2022-08-24T03:00:18;7.85;;;5.43;;
68214;SDS011;55036;52.138;5.236;2022-08-24T03:02:47;8.30;;;5.35;;
68214;SDS011;55036;52.138;5.236;2022-08-24T03:05:14;9.40;;;6.00;;
68214;SDS011;55036;52.138;5.236;2022-08-24T03:07:40;7.60;;;5.70;;
68214;SDS011;55036;52.138;5.236;2022-08-24T03:10:08;7.38;;;4.78;;
68214;SDS011;55036;52.138;5.236;2022-08-24T03:12:36;6.75;;;5.30;;
68214;SDS011;55036;52.138;5.236;2022-08-24T03:15:04;6.22;;;5.28;;
68214;SDS011;55036;52.138;5.236;2022-08-24T03:17:32;7.72;;;5.20;;
68214;SDS011;55036;52.138;5.236;2022-08-24T03:20:00;6.65;;;5.38;;
68214;SDS011;55036;52.138;5.236;2022-08-24T03:22:28;5.90;;;4.78;;
68214;SDS011;55036;52.138;5.236;2022-08-24T03:24:55;5.90;;;5.38;;
68214;SDS011;55036;52.138;5.236;2022-08-24T03:27:22;6.72;;;6.03;;
68214;SDS011;55036;52.138;5.236;2022-08-24T03:29:49;6.30;;;5.70;;
68214;SDS011;55036;52.138;5.236;2022-08-24T03:32:16;6.20;;;5.40;;
68214;SDS011;55036;52.138;5.236;2022-08-24T03:34:43;8.30;;;6.40;;
68214;SDS011;55036;52.138;5.236;2022-08-24T03:37:10;6.32;;;5.43;;
68214;SDS011;55036;52.138;5.236;2022-08-24T03:39:37;8.15;;;6.00;;
68214;SDS011;55036;52.138;5.236;2022-08-24T03:42:04;7.57;;;6.28;;
68214;SDS011;55036;52.138;5.236;2022-08-24T03:44:31;9.40;;;5.78;;
68214;SDS011;55036;52.138;5.236;2022-08-24T03:46:58;7.60;;;6.45;;
68214;SDS011;55036;52.138;5.236;2022-08-24T03:49:25;7.95;;;6.18;;
68214;SDS011;55036;52.138;5.236;2022-08-24T03:51:52;9.38;;;6.70;;
68214;SDS011;55036;52.138;5.236;2022-08-24T03:54:19;12.35;;;7.22;;
68214;SDS011;55036;52.138;5.236;2022-08-24T03:56:45;8.90;;;7.28;;
68214;SDS011;55036;52.138;5.236;2022-08-24T03:59:12;8.55;;;6.97;;
68214;SDS011;55036;52.138;5.236;2022-08-24T04:01:45;9.07;;;6.85;;
68214;SDS011;55036;52.138;5.236;2022-08-24T04:04:11;7.75;;;6.60;;
68214;SDS011;55036;52.138;5.236;2022-08-24T04:06:38;10.25;;;6.82;;
68214;SDS011;55036;52.138;5.236;2022-08-24T04:09:09;7.13;;;6.18;;
68214;SDS011;55036;52.138;5.236;2022-08-24T04:11:36;7.88;;;6.20;;
68214;SDS011;55036;52.138;5.236;2022-08-24T04:14:06;7.45;;;6.30;;
68214;SDS011;55036;52.138;5.236;2022-08-24T04:16:45;8.10;;;6.97;;
68214;SDS011;55036;52.138;5.236;2022-08-24T04:19:22;9.63;;;6.95;;
68214;SDS011;55036;52.138;5.236;2022-08-24T04:21:49;8.55;;;7.18;;
68214;SDS011;55036;52.138;5.236;2022-08-24T04:24:16;8.75;;;7.13;;
68214;SDS011;55036;52.138;5.236;2022-08-24T04:26:43;10.32;;;7.07;;
68214;SDS011;55036;52.138;5.236;2022-08-24T04:29:12;8.60;;;7.45;;
68214;SDS011;55036;52.138;5.236;2022-08-24T04:31:41;10.68;;;7.43;;
68214;SDS011;55036;52.138;5.236;2022-08-24T04:34:08;9.13;;;7.60;;
68214;SDS011;55036;52.138;5.236;2022-08-24T04:36:38;7.30;;;6.60;;
68214;SDS011;55036;52.138;5.236;2022-08-24T04:39:05;11.23;;;7.43;;
68214;SDS011;55036;52.138;5.236;2022-08-24T04:41:32;12.02;;;7.22;;
68214;SDS011;55036;52.138;5.236;2022-08-24T04:43:59;8.88;;;6.63;;
68214;SDS011;55036;52.138;5.236;2022-08-24T04:46:27;8.80;;;7.00;;
68214;SDS011;55036;52.138;5.236;2022-08-24T04:48:54;8.93;;;7.55;;
68214;SDS011;55036;52.138;5.236;2022-08-24T04:51:21;8.60;;;7.07;;
68214;SDS011;55036;52.138;5.236;2022-08-24T04:53:48;9.80;;;7.53;;
68214;SDS011;55036;52.138;5.236;2022-08-24T04:56:20;7.88;;;7.07;;
68214;SDS011;55036;52.138;5.236;2022-08-24T04:58:49;7.78;;;6.38;;
68214;SDS011;55036;52.138;5.236;2022-08-24T05:01:19;8.23;;;6.97;;
68214;SDS011;55036;52.138;5.236;2022-08-24T05:03:48;9.48;;;6.13;;
68214;SDS011;55036;52.138;5.236;2022-08-24T05:06:20;7.50;;;6.70;;
68214;SDS011;55036;52.138;5.236;2022-08-24T05:08:49;8.05;;;6.68;;
68214;SDS011;55036;52.138;5.236;2022-08-24T05:11:17;10.05;;;7.55;;
68214;SDS011;55036;52.138;5.236;2022-08-24T05:13:46;9.05;;;6.38;;
68214;SDS011;55036;52.138;5.236;2022-08-24T05:16:14;7.78;;;6.97;;
68214;SDS011;55036;52.138;5.236;2022-08-24T05:18:43;9.10;;;7.20;;
68214;SDS011;55036;52.138;5.236;2022-08-24T05:21:12;8.40;;;7.25;;
68214;SDS011;55036;52.138;5.236;2022-08-24T05:23:40;10.00;;;8.25;;
68214;SDS011;55036;52.138;5.236;2022-08-24T05:26:20;8.35;;;7.45;;
68214;SDS011;55036;52.138;5.236;2022-08-24T05:28:54;8.18;;;6.90;;
68214;SDS011;55036;52.138;5.236;2022-08-24T05:31:23;9.02;;;7.10;;
68214;SDS011;55036;52.138;5.236;2022-08-24T05:33:51;9.05;;;7.38;;
68214;SDS011;55036;52.138;5.236;2022-08-24T05:36:19;11.98;;;7.65;;
68214;SDS011;55036;52.138;5.236;2022-08-24T05:38:55;8.75;;;7.60;;
68214;SDS011;55036;52.138;5.236;2022-08-24T05:41:24;12.75;;;7.07;;
68214;SDS011;55036;52.138;5.236;2022-08-24T05:43:51;9.40;;;6.75;;
68214;SDS011;55036;52.138;5.236;2022-08-24T05:46:18;6.63;;;5.80;;
68214;SDS011;55036;52.138;5.236;2022-08-24T05:48:46;8.73;;;7.10;;
68214;SDS011;55036;52.138;5.236;2022-08-24T05:51:18;8.98;;;6.25;;
68214;SDS011;55036;52.138;5.236;2022-08-24T05:53:45;8.95;;;6.10;;
68214;SDS011;55036;52.138;5.236;2022-08-24T05:56:13;6.93;;;6.20;;
68214;SDS011;55036;52.138;5.236;2022-08-24T05:58:41;7.63;;;6.15;;
68214;SDS011;55036;52.138;5.236;2022-08-24T06:01:09;9.23;;;6.88;;
68214;SDS011;55036;52.138;5.236;2022-08-24T06:03:39;7.73;;;6.03;;
68214;SDS011;55036;52.138;5.236;2022-08-24T06:06:06;9.48;;;7.03;;
68214;SDS011;55036;52.138;5.236;2022-08-24T06:08:34;7.95;;;5.53;;
68214;SDS011;55036;52.138;5.236;2022-08-24T06:11:06;9.95;;;6.50;;
68214;SDS011;55036;52.138;5.236;2022-08-24T06:13:34;7.72;;;6.28;;
68214;SDS011;55036;52.138;5.236;2022-08-24T06:16:03;7.85;;;6.82;;
68214;SDS011;55036;52.138;5.236;2022-08-24T06:18:46;11.32;;;9.43;;
68214;SDS011;55036;52.138;5.236;2022-08-24T06:21:15;10.73;;;8.32;;
68214;SDS011;55036;52.138;5.236;2022-08-24T06:23:46;15.73;;;10.63;;
68214;SDS011;55036;52.138;5.236;2022-08-24T06:26:13;11.52;;;9.10;;
68214;SDS011;55036;52.138;5.236;2022-08-24T06:28:59;13.63;;;11.20;;
68214;SDS011;55036;52.138;5.236;2022-08-24T06:31:26;14.63;;;13.10;;
68214;SDS011;55036;52.138;5.236;2022-08-24T06:34:04;14.18;;;11.82;;
68214;SDS011;55036;52.138;5.236;2022-08-24T06:36:31;17.95;;;12.40;;
68214;SDS011;55036;52.138;5.236;2022-08-24T06:38:58;12.10;;;10.38;;
68214;SDS011;55036;52.138;5.236;2022-08-24T06:41:26;12.23;;;10.75;;
68214;SDS011;55036;52.138;5.236;2022-08-24T06:43:52;12.95;;;11.57;;
68214;SDS011;55036;52.138;5.236;2022-08-24T06:46:19;15.43;;;11.98;;
68214;SDS011;55036;52.138;5.236;2022-08-24T06:48:51;16.30;;;13.32;;
68214;SDS011;55036;52.138;5.236;2022-08-24T06:51:19;16.67;;;13.73;;
68214;SDS011;55036;52.138;5.236;2022-08-24T06:53:48;17.48;;;15.55;;
68214;SDS011;55036;52.138;5.236;2022-08-24T06:56:15;17.13;;;15.32;;
68214;SDS011;55036;52.138;5.236;2022-08-24T06:58:43;16.35;;;14.73;;
68214;SDS011;55036;52.138;5.236;2022-08-24T07:01:11;17.60;;;13.48;;
68214;SDS011;55036;52.138;5.236;2022-08-24T07:03:41;16.65;;;14.35;;
68214;SDS011;55036;52.138;5.236;2022-08-24T07:06:09;15.30;;;13.70;;
68214;SDS011;55036;52.138;5.236;2022-08-24T07:08:37;15.38;;;11.18;;
68214;SDS011;55036;52.138;5.236;2022-08-24T07:11:05;18.60;;;13.57;;
68214;SDS011;55036;52.138;5.236;2022-08-24T07:13:33;15.93;;;11.88;;
68214;SDS011;55036;52.138;5.236;2022-08-24T07:16:00;11.77;;;10.02;;
68214;SDS011;55036;52.138;5.236;2022-08-24T07:18:27;13.05;;;11.65;;
68214;SDS011;55036;52.138;5.236;2022-08-24T07:20:54;14.05;;;11.57;;
68214;SDS011;55036;52.138;5.236;2022-08-24T07:23:21;19.27;;;13.10;;
68214;SDS011;55036;52.138;5.236;2022-08-24T07:26:11;16.13;;;12.90;;
68214;SDS011;55036;52.138;5.236;2022-08-24T07:29:01;16.60;;;12.23;;
68214;SDS011;55036;52.138;5.236;2022-08-24T07:31:37;13.32;;;10.93;;
68214;SDS011;55036;52.138;5.236;2022-08-24T07:34:05;13.27;;;10.45;;
68214;SDS011;55036;52.138;5.236;2022-08-24T07:36:34;15.60;;;11.45;;
68214;SDS011;55036;52.138;5.236;2022-08-24T07:39:07;17.15;;;11.43;;
68214;SDS011;55036;52.138;5.236;2022-08-24T07:41:38;16.77;;;9.90;;
68214;SDS011;55036;52.138;5.236;2022-08-24T07:44:26;15.65;;;10.90;;
68214;SDS011;55036;52.138;5.236;2022-08-24T07:46:53;15.75;;;10.50;;
68214;SDS011;55036;52.138;5.236;2022-08-24T07:49:20;14.68;;;10.73;;
68214;SDS011;55036;52.138;5.236;2022-08-24T07:52:02;10.43;;;8.80;;
68214;SDS011;55036;52.138;5.236;2022-08-24T07:54:29;10.95;;;7.78;;
68214;SDS011;55036;52.138;5.236;2022-08-24T07:56:57;11.52;;;8.77;;
68214;SDS011;55036;52.138;5.236;2022-08-24T07:59:25;11.85;;;9.73;;
68214;SDS011;55036;52.138;5.236;2022-08-24T08:01:52;14.45;;;8.93;;
68214;SDS011;55036;52.138;5.236;2022-08-24T08:04:20;13.90;;;7.97;;
68214;SDS011;55036;52.138;5.236;2022-08-24T08:06:49;11.65;;;8.32;;
68214;SDS011;55036;52.138;5.236;2022-08-24T08:09:17;11.45;;;9.40;;
68214;SDS011;55036;52.138;5.236;2022-08-24T08:11:44;12.35;;;10.40;;
68214;SDS011;55036;52.138;5.236;2022-08-24T08:14:11;8.85;;;7.13;;
68214;SDS011;55036;52.138;5.236;2022-08-24T08:16:40;12.05;;;9.00;;
68214;SDS011;55036;52.138;5.236;2022-08-24T08:19:06;11.40;;;8.63;;
68214;SDS011;55036;52.138;5.236;2022-08-24T08:21:40;9.90;;;7.47;;
68214;SDS011;55036;52.138;5.236;2022-08-24T08:24:38;8.40;;;6.38;;
68214;SDS011;55036;52.138;5.236;2022-08-24T08:27:07;8.25;;;5.75;;
68214;SDS011;55036;52.138;5.236;2022-08-24T08:29:36;15.32;;;6.38;;
68214;SDS011;55036;52.138;5.236;2022-08-24T08:32:06;6.82;;;6.13;;
68214;SDS011;55036;52.138;5.236;2022-08-24T08:34:34;8.65;;;5.18;;
68214;SDS011;55036;52.138;5.236;2022-08-24T08:37:01;7.38;;;4.55;;
68214;SDS011;55036;52.138;5.236;2022-08-24T08:39:28;7.50;;;4.60;;
68214;SDS011;55036;52.138;5.236;2022-08-24T08:44:48;6.57;;;3.95;;
68214;SDS011;55036;52.138;5.236;2022-08-24T08:51:36;5.30;;;3.40;;
68214;SDS011;55036;52.138;5.236;2022-08-24T08:54:13;4.45;;;3.75;;
68214;SDS011;55036;52.138;5.236;2022-08-24T09:22:19;6.00;;;3.42;;
68214;SDS011;55036;52.138;5.236;2022-08-24T09:30:05;4.78;;;3.22;;
68214;SDS011;55036;52.138;5.236;2022-08-24T09:33:19;7.43;;;2.70;;
68214;SDS011;55036;52.138;5.236;2022-08-24T09:38:06;4.18;;;2.10;;
68214;SDS011;55036;52.138;5.236;2022-08-24T09:40:59;4.82;;;2.38;;
68214;SDS011;55036;52.138;5.236;2022-08-24T09:49:24;4.55;;;2.05;;
68214;SDS011;55036;52.138;5.236;2022-08-24T09:54:49;3.42;;;2.50;;
68214;SDS011;55036;52.138;5.236;2022-08-24T10:03:10;6.30;;;2.50;;
68214;SDS011;55036;52.138;5.236;2022-08-24T10:08:47;2.63;;;1.80;;
68214;SDS011;55036;52.138;5.236;2022-08-24T10:18:04;6.15;;;2.55;;
68214;SDS011;55036;52.138;5.236;2022-08-24T10:31:11;6.15;;;2.00;;
68214;SDS011;55036;52.138;5.236;2022-08-24T10:53:54;2.55;;;1.63;;
68214;SDS011;55036;52.138;5.236;2022-08-24T10:59:14;3.25;;;1.50;;
68214;SDS011;55036;52.138;5.236;2022-08-24T11:05:00;2.13;;;1.50;;
68214;SDS011;55036;52.138;5.236;2022-08-24T11:07:31;3.38;;;1.48;;
68214;SDS011;55036;52.138;5.236;2022-08-24T11:09:59;2.90;;;1.40;;
68214;SDS011;55036;52.138;5.236;2022-08-24T11:14:58;1.90;;;1.42;;
68214;SDS011;55036;52.138;5.236;2022-08-24T11:17:27;4.25;;;1.55;;
68214;SDS011;55036;52.138;5.236;2022-08-24T11:19:56;1.75;;;1.40;;
68214;SDS011;55036;52.138;5.236;2022-08-24T11:22:35;2.60;;;1.55;;
68214;SDS011;55036;52.138;5.236;2022-08-24T11:25:25;2.00;;;1.55;;
68214;SDS011;55036;52.138;5.236;2022-08-24T11:27:58;4.72;;;1.40;;
68214;SDS011;55036;52.138;5.236;2022-08-24T11:30:31;2.65;;;1.23;;
68214;SDS011;55036;52.138;5.236;2022-08-24T11:33:05;2.55;;;1.40;;
68214;SDS011;55036;52.138;5.236;2022-08-24T11:36:19;2.05;;;1.40;;
68214;SDS011;55036;52.138;5.236;2022-08-24T11:41:58;2.58;;;1.45;;
68214;SDS011;55036;52.138;5.236;2022-08-24T11:44:52;4.05;;;1.50;;
68214;SDS011;55036;52.138;5.236;2022-08-24T11:47:41;4.60;;;2.00;;
68214;SDS011;55036;52.138;5.236;2022-08-24T11:58:46;3.63;;;1.60;;
68214;SDS011;55036;52.138;5.236;2022-08-24T12:01:34;2.17;;;1.45;;
68214;SDS011;55036;52.138;5.236;2022-08-24T12:07:04;2.45;;;1.70;;
68214;SDS011;55036;52.138;5.236;2022-08-24T12:14:39;5.18;;;1.38;;
68214;SDS011;55036;52.138;5.236;2022-08-24T12:17:36;2.65;;;1.30;;
68214;SDS011;55036;52.138;5.236;2022-08-24T12:23:07;2.08;;;1.60;;
68214;SDS011;55036;52.138;5.236;2022-08-24T12:25:40;2.67;;;1.35;;
68214;SDS011;55036;52.138;5.236;2022-08-24T12:28:37;2.78;;;1.40;;
68214;SDS011;55036;52.138;5.236;2022-08-24T12:31:15;1.83;;;1.50;;
68214;SDS011;55036;52.138;5.236;2022-08-24T12:33:48;2.85;;;1.60;;
68214;SDS011;55036;52.138;5.236;2022-08-24T12:36:20;2.90;;;1.40;;
68214;SDS011;55036;52.138;5.236;2022-08-24T12:39:00;2.05;;;1.40;;
68214;SDS011;55036;52.138;5.236;2022-08-24T12:41:34;4.68;;;1.63;;
68214;SDS011;55036;52.138;5.236;2022-08-24T12:44:11;5.13;;;1.60;;
68214;SDS011;55036;52.138;5.236;2022-08-24T12:46:40;3.50;;;1.20;;
68214;SDS011;55036;52.138;5.236;2022-08-24T12:49:21;1.00;;;0.90;;
68214;SDS011;55036;52.138;5.236;2022-08-24T12:52:30;2.67;;;1.30;;
68214;SDS011;55036;52.138;5.236;2022-08-24T13:01:19;1.20;;;1.10;;
68214;SDS011;55036;52.138;5.236;2022-08-24T13:04:04;5.68;;;1.20;;
68214;SDS011;55036;52.138;5.236;2022-08-24T13:06:43;4.05;;;1.35;;
68214;SDS011;55036;52.138;5.236;2022-08-24T13:09:25;3.70;;;1.30;;
68214;SDS011;55036;52.138;5.236;2022-08-24T13:41:49;2.13;;;1.10;;
68214;SDS011;55036;52.138;5.236;2022-08-24T13:53:55;7.13;;;1.30;;
68214;SDS011;55036;52.138;5.236;2022-08-24T13:56:25;2.55;;;1.00;;
68214;SDS011;55036;52.138;5.236;2022-08-24T14:06:55;2.78;;;1.40;;
68214;SDS011;55036;52.138;5.236;2022-08-24T14:18:13;4.00;;;1.85;;
68214;SDS011;55036;52.138;5.236;2022-08-24T14:21:04;4.13;;;1.85;;
68214;SDS011;55036;52.138;5.236;2022-08-24T14:34:30;1.90;;;1.40;;
68214;SDS011;55036;52.138;5.236;2022-08-24T14:37:10;2.75;;;1.80;;
68214;SDS011;55036;52.138;5.236;2022-08-24T14:39:54;2.22;;;1.85;;
68214;SDS011;55036;52.138;5.236;2022-08-24T14:43:13;6.05;;;1.73;;
68214;SDS011;55036;52.138;5.236;2022-08-24T14:54:31;3.20;;;1.60;;
68214;SDS011;55036;52.138;5.236;2022-08-24T14:57:23;3.28;;;1.73;;
68214;SDS011;55036;52.138;5.236;2022-08-24T15:00:06;4.32;;;2.13;;
68214;SDS011;55036;52.138;5.236;2022-08-24T15:07:59;2.58;;;1.75;;
68214;SDS011;55036;52.138;5.236;2022-08-24T15:10:49;2.65;;;1.60;;
68214;SDS011;55036;52.138;5.236;2022-08-24T15:16:14;2.72;;;1.70;;
68214;SDS011;55036;52.138;5.236;2022-08-24T15:18:56;3.08;;;1.80;;
68214;SDS011;55036;52.138;5.236;2022-08-24T15:29:53;5.00;;;1.55;;
68214;SDS011;55036;52.138;5.236;2022-08-24T15:32:25;5.60;;;1.65;;
68214;SDS011;55036;52.138;5.236;2022-08-24T15:35:21;4.63;;;1.60;;
68214;SDS011;55036;52.138;5.236;2022-08-24T15:37:54;6.90;;;2.20;;
68214;SDS011;55036;52.138;5.236;2022-08-24T15:40:23;2.75;;;1.52;;
68214;SDS011;55036;52.138;5.236;2022-08-24T15:42:56;4.13;;;1.52;;
68214;SDS011;55036;52.138;5.236;2022-08-24T15:45:30;2.97;;;1.30;;
68214;SDS011;55036;52.138;5.236;2022-08-24T15:47:58;3.15;;;1.73;;
68214;SDS011;55036;52.138;5.236;2022-08-24T15:50:28;4.18;;;1.55;;
68214;SDS011;55036;52.138;5.236;2022-08-24T15:52:59;3.45;;;1.60;;
68214;SDS011;55036;52.138;5.236;2022-08-24T15:55:31;2.15;;;1.52;;
68214;SDS011;55036;52.138;5.236;2022-08-24T15:58:11;5.60;;;1.98;;
68214;SDS011;55036;52.138;5.236;2022-08-24T16:00:57;3.10;;;2.10;;
68214;SDS011;55036;52.138;5.236;2022-08-24T16:09:13;2.47;;;1.50;;
68214;SDS011;55036;52.138;5.236;2022-08-24T16:15:10;5.80;;;1.80;;
68214;SDS011;55036;52.138;5.236;2022-08-24T16:17:54;2.13;;;1.60;;
68214;SDS011;55036;52.138;5.236;2022-08-24T16:22:52;5.13;;;2.00;;
68214;SDS011;55036;52.138;5.236;2022-08-24T16:25:27;4.78;;;2.05;;
68214;SDS011;55036;52.138;5.236;2022-08-24T16:36:08;3.55;;;1.45;;
68214;SDS011;55036;52.138;5.236;2022-08-24T16:38:38;4.53;;;1.52;;
68214;SDS011;55036;52.138;5.236;2022-08-24T16:41:12;3.75;;;1.63;;
68214;SDS011;55036;52.138;5.236;2022-08-24T16:43:41;5.03;;;1.70;;
68214;SDS011;55036;52.138;5.236;2022-08-24T16:46:09;2.83;;;1.92;;
68214;SDS011;55036;52.138;5.236;2022-08-24T16:48:36;2.72;;;1.67;;
68214;SDS011;55036;52.138;5.236;2022-08-24T16:51:04;2.47;;;1.73;;
68214;SDS011;55036;52.138;5.236;2022-08-24T16:53:31;3.05;;;2.10;;
68214;SDS011;55036;52.138;5.236;2022-08-24T16:55:58;4.65;;;2.10;;
68214;SDS011;55036;52.138;5.236;2022-08-24T16:58:26;3.95;;;1.40;;
68214;SDS011;55036;52.138;5.236;2022-08-24T17:00:58;3.75;;;2.00;;
68214;SDS011;55036;52.138;5.236;2022-08-24T17:03:25;4.53;;;1.67;;
68214;SDS011;55036;52.138;5.236;2022-08-24T17:05:52;2.10;;;1.55;;
68214;SDS011;55036;52.138;5.236;2022-08-24T17:08:21;2.45;;;1.98;;
68214;SDS011;55036;52.138;5.236;2022-08-24T17:10:48;3.75;;;2.03;;
68214;SDS011;55036;52.138;5.236;2022-08-24T17:13:15;7.95;;;1.85;;
68214;SDS011;55036;52.138;5.236;2022-08-24T17:16:01;3.75;;;1.80;;
68214;SDS011;55036;52.138;5.236;2022-08-24T17:18:28;2.90;;;1.67;;
68214;SDS011;55036;52.138;5.236;2022-08-24T17:20:56;4.45;;;1.50;;
68214;SDS011;55036;52.138;5.236;2022-08-24T17:23:23;2.60;;;1.70;;
68214;SDS011;55036;52.138;5.236;2022-08-24T17:25:50;2.78;;;1.65;;
68214;SDS011;55036;52.138;5.236;2022-08-24T17:28:19;3.75;;;1.77;;
68214;SDS011;55036;52.138;5.236;2022-08-24T17:30:45;3.25;;;1.58;;
68214;SDS011;55036;52.138;5.236;2022-08-24T17:33:17;1.63;;;1.52;;
68214;SDS011;55036;52.138;5.236;2022-08-24T17:35:44;2.03;;;1.55;;
68214;SDS011;55036;52.138;5.236;2022-08-24T17:38:11;3.50;;;1.50;;
68214;SDS011;55036;52.138;5.236;2022-08-24T17:40:38;2.25;;;1.85;;
68214;SDS011;55036;52.138;5.236;2022-08-24T17:43:04;6.95;;;2.10;;
68214;SDS011;55036;52.138;5.236;2022-08-24T17:45:31;3.88;;;1.60;;
68214;SDS011;55036;52.138;5.236;2022-08-24T17:47:58;2.85;;;1.75;;
68214;SDS011;55036;52.138;5.236;2022-08-24T17:50:25;3.00;;;1.77;;
68214;SDS011;55036;52.138;5.236;2022-08-24T17:52:53;2.25;;;1.80;;
68214;SDS011;55036;52.138;5.236;2022-08-24T17:55:25;3.88;;;1.90;;
68214;SDS011;55036;52.138;5.236;2022-08-24T17:57:53;4.00;;;1.90;;
68214;SDS011;55036;52.138;5.236;2022-08-24T18:00:20;5.50;;;2.25;;
68214;SDS011;55036;52.138;5.236;2022-08-24T18:02:46;4.20;;;2.00;;
68214;SDS011;55036;52.138;5.236;2022-08-24T18:05:13;3.05;;;1.92;;
68214;SDS011;55036;52.138;5.236;2022-08-24T18:07:42;3.70;;;3.08;;
68214;SDS011;55036;52.138;5.236;2022-08-24T18:10:22;7.68;;;5.80;;
68214;SDS011;55036;52.138;5.236;2022-08-24T18:12:51;9.27;;;3.65;;
68214;SDS011;55036;52.138;5.236;2022-08-24T18:15:18;3.83;;;2.63;;
68214;SDS011;55036;52.138;5.236;2022-08-24T18:17:46;4.35;;;2.60;;
68214;SDS011;55036;52.138;5.236;2022-08-24T18:20:15;3.58;;;2.05;;
68214;SDS011;55036;52.138;5.236;2022-08-24T18:22:47;1.90;;;1.58;;
68214;SDS011;55036;52.138;5.236;2022-08-24T18:25:20;1.95;;;1.75;;
68214;SDS011;55036;52.138;5.236;2022-08-24T18:27:48;4.53;;;1.70;;
68214;SDS011;55036;52.138;5.236;2022-08-24T18:32:55;1.63;;;1.52;;
68214;SDS011;55036;52.138;5.236;2022-08-24T18:35:22;2.33;;;1.77;;
68214;SDS011;55036;52.138;5.236;2022-08-24T18:37:49;2.55;;;1.65;;
68214;SDS011;55036;52.138;5.236;2022-08-24T18:40:16;5.43;;;2.05;;
68214;SDS011;55036;52.138;5.236;2022-08-24T18:42:46;3.10;;;1.80;;
68214;SDS011;55036;52.138;5.236;2022-08-24T18:45:15;2.55;;;1.65;;
68214;SDS011;55036;52.138;5.236;2022-08-24T18:47:42;4.35;;;2.08;;
68214;SDS011;55036;52.138;5.236;2022-08-24T18:50:09;3.75;;;2.22;;
68214;SDS011;55036;52.138;5.236;2022-08-24T18:52:37;3.55;;;2.38;;
68214;SDS011;55036;52.138;5.236;2022-08-24T18:55:08;4.55;;;2.30;;
68214;SDS011;55036;52.138;5.236;2022-08-24T18:57:35;3.15;;;2.20;;
68214;SDS011;55036;52.138;5.236;2022-08-24T19:00:02;4.53;;;1.92;;
68214;SDS011;55036;52.138;5.236;2022-08-24T19:02:31;4.32;;;2.30;;
68214;SDS011;55036;52.138;5.236;2022-08-24T19:05:05;5.40;;;2.60;;
68214;SDS011;55036;52.138;5.236;2022-08-24T19:07:41;4.20;;;2.75;;
68214;SDS011;55036;52.138;5.236;2022-08-24T19:10:10;3.35;;;2.78;;
68214;SDS011;55036;52.138;5.236;2022-08-24T19:12:40;3.90;;;2.90;;
68214;SDS011;55036;52.138;5.236;2022-08-24T19:15:12;6.20;;;3.47;;
68214;SDS011;55036;52.138;5.236;2022-08-24T19:18:00;4.18;;;3.10;;
68214;SDS011;55036;52.138;5.236;2022-08-24T19:20:30;4.00;;;3.25;;
68214;SDS011;55036;52.138;5.236;2022-08-24T19:23:08;4.93;;;2.90;;
68214;SDS011;55036;52.138;5.236;2022-08-24T19:25:38;6.28;;;3.85;;
68214;SDS011;55036;52.138;5.236;2022-08-24T19:28:07;5.03;;;3.60;;